createdAt,value
2019-02-06T00:00:57.070Z,88.40
2019-02-06T00:03:26.542Z,99.07
2019-02-06T00:05:56.076Z,83.83
2019-02-06T00:08:25.848Z,93.17
2019-02-06T00:10:55.376Z,92.53
2019-02-06T00:13:24.950Z,98.37
2019-02-06T00:15:54.852Z,90.20
2019-02-06T00:18:24.647Z,86.80
2019-02-06T00:20:54.152Z,88.87
2019-02-06T00:23:23.750Z,84.10
2019-02-06T00:25:53.352Z,82.10
2019-02-06T00:28:22.898Z,77.87
2019-02-06T00:30:53.831Z,73.00
2019-02-06T00:33:23.321Z,79.07
2019-02-06T00:35:54.164Z,92.13
2019-02-06T00:38:23.686Z,103.50
2019-02-06T00:40:53.262Z,136.97
2019-02-06T00:43:22.826Z,114.30
2019-02-06T00:45:54.675Z,105.70
2019-02-06T00:48:24.287Z,84.37
2019-02-06T00:50:54.203Z,84.07
2019-02-06T00:53:23.772Z,80.53
2019-02-06T00:55:53.318Z,66.83
2019-02-06T00:58:23.230Z,82.63
2019-02-06T01:00:52.902Z,83.63
2019-02-06T01:03:22.606Z,81.97
2019-02-06T01:05:52.092Z,80.47
2019-02-06T01:08:21.775Z,71.73
2019-02-06T01:10:51.293Z,68.53
2019-02-06T01:13:23.254Z,73.47
2019-02-06T01:15:53.214Z,65.87
2019-02-06T01:18:23.025Z,65.90
2019-02-06T01:20:53.143Z,70.57
2019-02-06T01:23:23.014Z,76.50
2019-02-06T01:25:52.555Z,77.13
2019-02-06T01:28:22.567Z,68.47
2019-02-06T01:30:56.345Z,65.97
2019-02-06T01:33:25.892Z,75.77
2019-02-06T01:35:55.645Z,71.47
2019-02-06T01:38:25.198Z,66.47
2019-02-06T01:40:54.717Z,71.23
2019-02-06T01:43:24.345Z,68.40
2019-02-06T01:45:53.887Z,76.87
2019-02-06T01:48:23.967Z,66.83
2019-02-06T01:50:53.467Z,68.47
2019-02-06T01:53:23.143Z,68.07
2019-02-06T01:55:54.904Z,67.87
2019-02-06T01:58:24.733Z,67.63
2019-02-06T02:00:54.299Z,69.27
2019-02-06T02:03:23.813Z,73.90
2019-02-06T02:06:01.909Z,67.23
2019-02-06T02:08:25.009Z,63.57
2019-02-06T02:10:54.695Z,69.37
2019-02-06T02:13:24.171Z,61.27
2019-02-06T02:15:53.752Z,69.67
2019-02-06T02:18:23.421Z,64.33
2019-02-06T02:20:53.639Z,66.57
2019-02-06T02:23:23.126Z,64.53
2019-02-06T02:25:53.029Z,70.93
2019-02-06T02:28:22.542Z,73.17
2019-02-06T02:30:54.627Z,66.97
2019-02-06T02:33:24.419Z,63.77
2019-02-06T02:35:53.904Z,73.40
2019-02-06T02:38:23.430Z,68.03
2019-02-06T02:40:53.257Z,66.87
2019-02-06T02:43:22.830Z,74.10
2019-02-06T02:45:52.757Z,69.03
2019-02-06T02:48:22.263Z,67.50
2019-02-06T02:50:52.198Z,70.53
2019-02-06T02:53:24.027Z,69.30
2019-02-06T02:55:53.948Z,76.33
2019-02-06T02:58:23.582Z,73.20
2019-02-06T03:01:15.047Z,76.30
2019-02-06T03:04:18.732Z,72.50
2019-02-06T03:06:48.246Z,76.87
2019-02-06T03:09:18.086Z,60.23
2019-02-06T03:11:47.630Z,64.77
2019-02-06T03:14:17.582Z,59.50
2019-02-06T03:16:47.666Z,65.77
2019-02-06T03:19:17.162Z,63.50
2019-02-06T03:21:46.682Z,68.40
2019-02-06T03:24:16.276Z,64.73
2019-02-06T03:26:45.838Z,68.77
2019-02-06T03:29:15.464Z,64.93
2019-02-06T03:31:45.070Z,68.83
2019-02-06T03:34:14.535Z,63.90
2019-02-06T03:36:44.331Z,63.07
2019-02-06T03:39:13.881Z,63.40
2019-02-06T03:41:43.328Z,59.90
2019-02-06T03:44:12.926Z,66.53
2019-02-06T03:46:42.470Z,57.80
2019-02-06T03:49:11.970Z,62.10
2019-02-06T03:51:41.586Z,63.73
2019-02-06T03:54:11.206Z,57.93
2019-02-06T03:56:40.721Z,56.77
2019-02-06T03:59:10.350Z,58.87
2019-02-06T04:01:39.878Z,62.23
2019-02-06T04:04:09.714Z,63.67
2019-02-06T04:06:39.251Z,63.13
2019-02-06T04:09:09.592Z,59.57
2019-02-06T04:11:39.297Z,58.43
2019-02-06T04:14:09.169Z,58.77
2019-02-06T04:16:38.674Z,56.47
2019-02-06T04:19:08.323Z,57.23
2019-02-06T04:21:37.808Z,55.67
2019-02-06T04:24:07.316Z,58.23
2019-02-06T04:26:36.840Z,61.57
2019-02-06T04:29:06.443Z,63.30
2019-02-06T04:31:35.961Z,55.10
2019-02-06T04:34:05.696Z,63.37
2019-02-06T04:36:35.381Z,54.13
2019-02-06T04:39:07.839Z,66.77
2019-02-06T04:41:37.704Z,57.03
2019-02-06T04:44:07.817Z,59.77
2019-02-06T04:46:37.335Z,57.33
2019-02-06T04:49:06.851Z,54.50
2019-02-06T04:51:36.541Z,59.07
2019-02-06T04:54:06.105Z,52.33
2019-02-06T04:56:35.631Z,59.53
2019-02-06T04:59:05.253Z,55.70
2019-02-06T05:01:34.814Z,56.77
2019-02-06T05:04:09.719Z,58.33
2019-02-06T05:06:39.254Z,58.70
2019-02-06T05:09:09.009Z,71.77
2019-02-06T05:11:38.684Z,60.17
2019-02-06T05:14:08.585Z,57.60
2019-02-06T05:16:38.089Z,55.13
2019-02-06T05:19:07.673Z,58.80
2019-02-06T05:21:37.225Z,59.27
2019-02-06T05:24:06.751Z,61.63
2019-02-06T05:26:36.565Z,59.63
2019-02-06T05:29:06.163Z,58.43
2019-02-06T05:31:36.085Z,61.43
2019-02-06T05:34:05.799Z,59.97
2019-02-06T05:36:35.328Z,60.07
2019-02-06T05:39:07.110Z,57.23
2019-02-06T05:41:36.804Z,56.83
2019-02-06T05:44:06.319Z,59.90
2019-02-06T05:46:36.017Z,60.03
2019-02-06T05:49:05.988Z,63.67
2019-02-06T05:51:35.597Z,60.37
2019-02-06T05:54:05.096Z,57.63
2019-02-06T05:56:34.926Z,63.90
2019-02-06T05:59:04.531Z,65.77
2019-02-06T06:01:34.202Z,62.83
2019-02-06T06:04:03.879Z,70.17
2019-02-06T06:06:33.716Z,68.57
2019-02-06T06:09:04.713Z,64.03
2019-02-06T06:11:34.743Z,70.00
2019-02-06T06:14:04.659Z,65.70
2019-02-06T06:16:34.303Z,70.63
2019-02-06T06:19:04.038Z,64.93
2019-02-06T06:21:33.971Z,64.03
2019-02-06T06:24:03.481Z,62.83
2019-02-06T06:26:33.423Z,67.77
2019-02-06T06:29:02.917Z,62.47
2019-02-06T06:31:32.649Z,69.43
2019-02-06T06:34:02.131Z,73.93
2019-02-06T06:36:31.656Z,63.23
2019-02-06T06:39:01.506Z,73.23
2019-02-06T06:41:31.005Z,64.10
2019-02-06T06:44:00.928Z,61.73
2019-02-06T06:46:30.493Z,59.00
2019-02-06T06:49:00.013Z,59.50
2019-02-06T06:51:29.550Z,58.17
2019-02-06T06:53:59.090Z,61.30
2019-02-06T06:56:29.094Z,60.57
2019-02-06T06:58:58.661Z,60.83
2019-02-06T07:01:28.341Z,57.47
2019-02-06T07:03:57.826Z,56.17
2019-02-06T07:06:27.353Z,58.57
2019-02-06T07:08:56.965Z,55.87
2019-02-06T07:11:26.540Z,62.70
2019-02-06T07:13:56.013Z,58.30
2019-02-06T07:16:25.575Z,57.60
2019-02-06T07:18:55.119Z,55.57
2019-02-06T07:21:24.639Z,50.23
2019-02-06T07:23:54.231Z,54.87
2019-02-06T07:26:23.760Z,53.93
2019-02-06T07:28:53.261Z,57.07
2019-02-06T07:31:23.935Z,59.20
2019-02-06T07:33:53.480Z,51.57
2019-02-06T07:36:23.349Z,50.70
2019-02-06T07:38:52.883Z,52.53
2019-02-06T07:41:22.527Z,51.27
2019-02-06T07:43:54.291Z,51.00
2019-02-06T07:46:23.919Z,53.70
2019-02-06T07:48:53.507Z,52.60
2019-02-06T07:51:23.126Z,52.77
2019-02-06T07:53:52.788Z,56.63
2019-02-06T07:56:23.970Z,50.40
2019-02-06T07:58:53.461Z,59.07
2019-02-06T08:01:23.384Z,55.47
2019-02-06T08:03:52.943Z,53.80
2019-02-06T08:06:23.837Z,73.50
2019-02-06T08:08:53.365Z,61.30
2019-02-06T08:11:24.975Z,56.63
2019-02-06T08:13:54.503Z,77.57
2019-02-06T08:16:24.039Z,70.33
2019-02-06T08:18:53.694Z,62.40
2019-02-06T08:21:23.254Z,64.07
2019-02-06T08:23:52.784Z,64.17
2019-02-06T08:26:22.481Z,68.80
2019-02-06T08:28:52.030Z,63.17
2019-02-06T08:31:21.913Z,66.83
2019-02-06T08:33:52.762Z,69.27
2019-02-06T08:36:22.302Z,65.07
2019-02-06T08:38:51.795Z,59.87
2019-02-06T08:41:21.686Z,60.40
2019-02-06T08:43:52.303Z,58.40
2019-02-06T08:46:22.945Z,62.83
2019-02-06T08:48:52.494Z,71.33
2019-02-06T08:51:21.994Z,67.17
2019-02-06T08:53:52.058Z,60.03
2019-02-06T08:56:21.641Z,60.00
2019-02-06T08:58:51.400Z,53.23
2019-02-06T09:01:20.926Z,50.90
2019-02-06T09:03:51.339Z,49.37
2019-02-06T09:06:21.939Z,52.20
2019-02-06T09:08:59.906Z,51.07
2019-02-06T09:11:24.179Z,48.13
2019-02-06T09:13:54.334Z,49.53
2019-02-06T09:16:23.864Z,58.83
2019-02-06T09:18:53.701Z,53.10
2019-02-06T09:21:23.238Z,58.93
2019-02-06T09:23:53.074Z,49.87
2019-02-06T09:26:24.131Z,46.63
2019-02-06T09:28:53.709Z,48.23
2019-02-06T09:31:23.590Z,59.57
2019-02-06T09:33:53.132Z,43.90
2019-02-06T09:36:23.484Z,49.37
2019-02-06T09:38:55.308Z,44.73
2019-02-06T09:41:24.833Z,49.87
2019-02-06T09:43:54.828Z,42.77
2019-02-06T09:46:24.424Z,43.70
2019-02-06T09:48:54.000Z,51.47
2019-02-06T09:51:24.665Z,48.50
2019-02-06T09:53:54.467Z,48.47
2019-02-06T09:56:24.022Z,41.67
2019-02-06T09:58:55.097Z,45.20
2019-02-06T10:01:24.598Z,42.70
2019-02-06T10:03:54.237Z,43.40
2019-02-06T10:06:23.758Z,49.07
2019-02-06T10:08:54.769Z,53.17
2019-02-06T10:11:24.337Z,51.70
2019-02-06T10:13:53.975Z,52.30
2019-02-06T10:16:23.467Z,44.27
2019-02-06T10:18:53.021Z,41.33
2019-02-06T10:21:22.678Z,48.87
2019-02-06T10:23:52.179Z,41.17
2019-02-06T10:26:21.698Z,44.40
2019-02-06T10:28:51.307Z,36.80
2019-02-06T10:31:20.810Z,41.40
2019-02-06T10:33:50.398Z,49.23
2019-02-06T10:36:19.935Z,47.57
2019-02-06T10:38:49.448Z,45.93
2019-02-06T10:41:18.990Z,52.87
2019-02-06T10:43:48.576Z,45.40
2019-02-06T10:46:18.510Z,49.33
2019-02-06T10:48:48.006Z,55.80
2019-02-06T10:51:17.548Z,54.50
2019-02-06T10:53:47.036Z,56.37
2019-02-06T10:56:16.576Z,49.27
2019-02-06T10:58:46.116Z,48.30
2019-02-06T11:01:15.696Z,45.57
2019-02-06T11:03:45.252Z,49.97
2019-02-06T11:06:14.746Z,45.63
2019-02-06T11:08:44.360Z,50.27
2019-02-06T11:11:13.888Z,48.37
2019-02-06T11:13:43.402Z,44.47
2019-02-06T11:16:12.871Z,58.93
2019-02-06T11:18:44.531Z,51.10
2019-02-06T11:21:13.756Z,48.97
2019-02-06T11:23:43.223Z,42.83
2019-02-06T11:26:12.704Z,49.40
2019-02-06T11:28:42.213Z,44.27
2019-02-06T11:31:11.798Z,50.43
2019-02-06T11:33:41.390Z,49.33
2019-02-06T11:36:11.016Z,38.67
2019-02-06T11:38:40.553Z,44.17
2019-02-06T11:41:10.076Z,45.87
2019-02-06T11:43:39.638Z,45.57
2019-02-06T11:46:09.313Z,39.70
2019-02-06T11:48:39.171Z,42.77
2019-02-06T11:51:08.707Z,42.30
2019-02-06T11:53:38.627Z,51.60
2019-02-06T11:56:08.134Z,43.53
2019-02-06T11:58:37.737Z,48.90
2019-02-06T12:01:29.325Z,44.17
2019-02-06T12:03:58.818Z,39.23
2019-02-06T12:06:28.306Z,40.37
2019-02-06T12:08:57.831Z,44.03
2019-02-06T12:11:27.357Z,40.87
2019-02-06T12:13:56.996Z,37.37
2019-02-06T12:16:26.596Z,31.40
2019-02-06T12:18:57.271Z,31.00
2019-02-06T12:21:26.741Z,38.43
2019-02-06T12:23:56.383Z,33.43
2019-02-06T12:26:25.851Z,36.90
2019-02-06T12:28:55.373Z,37.10
2019-02-06T12:31:25.100Z,31.87
2019-02-06T12:33:55.369Z,37.60
2019-02-06T12:36:24.883Z,37.73
2019-02-06T12:38:54.443Z,30.03
2019-02-06T12:41:23.953Z,29.43
2019-02-06T12:43:53.459Z,31.77
2019-02-06T12:46:23.325Z,28.53
2019-02-06T12:48:52.821Z,23.77
2019-02-06T12:51:22.792Z,25.20
2019-02-06T12:53:52.298Z,26.60
2019-02-06T12:56:21.772Z,23.47
2019-02-06T12:58:51.369Z,27.27
2019-02-06T13:01:20.875Z,26.10
2019-02-06T13:03:50.411Z,30.03
2019-02-06T13:06:20.310Z,23.67
2019-02-06T13:08:49.778Z,24.33
2019-02-06T13:11:19.397Z,26.73
2019-02-06T13:13:48.919Z,22.43
2019-02-06T13:16:18.384Z,26.03
2019-02-06T13:18:48.229Z,22.40
2019-02-06T13:21:18.470Z,23.57
2019-02-06T13:23:49.595Z,26.13
2019-02-06T13:26:19.158Z,24.67
2019-02-06T13:28:48.998Z,24.77
2019-02-06T13:31:18.556Z,24.00
2019-02-06T13:33:48.398Z,23.93
2019-02-06T13:36:18.533Z,22.57
2019-02-06T13:38:48.040Z,19.87
2019-02-06T13:41:17.856Z,25.77
2019-02-06T13:43:47.358Z,20.60
2019-02-06T13:46:16.891Z,25.07
2019-02-06T13:48:46.504Z,23.90
2019-02-06T13:51:19.511Z,26.30
2019-02-06T13:53:47.348Z,28.53
2019-02-06T13:56:16.820Z,30.83
2019-02-06T13:58:46.476Z,32.40
2019-02-06T14:01:25.374Z,39.87
2019-02-06T14:03:47.126Z,34.13
2019-02-06T14:06:16.643Z,38.70
2019-02-06T14:08:46.261Z,35.97
2019-02-06T14:11:15.784Z,35.80
2019-02-06T14:13:45.712Z,32.97
2019-02-06T14:16:15.436Z,34.63
2019-02-06T14:18:45.564Z,39.87
2019-02-06T14:21:15.422Z,46.97
2019-02-06T14:23:58.121Z,46.37
2019-02-06T14:26:49.888Z,43.90
2019-02-06T14:30:18.349Z,47.50
2019-02-06T14:33:35.818Z,40.97
2019-02-06T14:36:38.409Z,50.53
2019-02-06T14:39:13.367Z,45.47
2019-02-06T14:42:19.878Z,51.33
2019-02-06T14:45:06.998Z,51.27
2019-02-06T14:48:14.166Z,50.33
2019-02-06T14:51:43.085Z,49.30
2019-02-06T14:55:04.351Z,53.20
2019-02-06T14:58:04.274Z,54.03
2019-02-06T15:00:44.275Z,48.10
2019-02-06T15:03:57.783Z,47.47
2019-02-06T15:07:04.597Z,47.57
2019-02-06T15:10:11.349Z,43.30
2019-02-06T15:13:24.075Z,46.27
2019-02-06T15:16:40.627Z,65.47
2019-02-06T15:19:29.977Z,77.67
2019-02-06T15:23:01.525Z,73.10
2019-02-06T15:25:44.171Z,56.40
2019-02-06T15:28:36.005Z,104.33
2019-02-06T15:31:43.709Z,101.17
2019-02-06T15:34:35.232Z,100.77
2019-02-06T15:37:43.555Z,88.90
2019-02-06T15:40:30.124Z,73.07
2019-02-06T15:43:28.460Z,65.87
2019-02-06T15:46:26.802Z,62.47
2019-02-06T15:49:55.792Z,56.77
2019-02-06T15:52:59.796Z,47.53
2019-02-06T15:55:50.538Z,50.47
2019-02-06T15:59:13.540Z,54.67
2019-02-06T16:02:15.454Z,43.97
2019-02-06T16:05:46.888Z,52.90
2019-02-06T16:09:04.808Z,50.77
2019-02-06T16:12:00.490Z,47.60
2019-02-06T16:14:50.678Z,55.93
2019-02-06T16:17:55.178Z,49.87
2019-02-06T16:21:02.839Z,51.47
2019-02-06T16:24:19.513Z,50.77
2019-02-06T16:27:12.964Z,54.30
2019-02-06T16:30:24.330Z,58.53
2019-02-06T16:33:18.626Z,51.90
2019-02-06T16:35:54.613Z,58.93
2019-02-06T16:38:38.727Z,63.27
2019-02-06T16:42:10.731Z,68.53
2019-02-06T16:45:23.057Z,70.43
2019-02-06T16:48:27.376Z,85.70
2019-02-06T16:51:12.437Z,94.30
2019-02-06T16:54:06.955Z,83.70
2019-02-06T16:57:06.569Z,90.13
2019-02-06T17:00:08.618Z,75.73
2019-02-06T17:03:24.250Z,67.27
2019-02-06T17:06:53.210Z,77.23
2019-02-06T17:10:11.696Z,83.27
2019-02-06T17:13:20.424Z,78.73
2019-02-06T17:16:55.418Z,85.73
2019-02-06T17:19:38.618Z,88.53
2019-02-06T17:22:58.382Z,101.40
2019-02-06T17:26:11.306Z,103.57
2019-02-06T17:28:58.102Z,86.77
2019-02-06T17:32:21.010Z,82.13
2019-02-06T17:35:31.632Z,89.43
2019-02-06T17:38:42.154Z,76.67
2019-02-06T17:41:49.634Z,81.57
2019-02-06T17:44:59.090Z,84.40
2019-02-06T17:48:08.328Z,89.17
2019-02-06T17:50:50.832Z,82.03
2019-02-06T17:53:47.704Z,84.87
2019-02-06T17:56:18.377Z,74.33
2019-02-06T17:58:47.925Z,71.83
2019-02-06T18:01:43.968Z,78.33
2019-02-06T18:04:16.252Z,64.97
2019-02-06T18:06:52.513Z,65.40
2019-02-06T18:09:41.532Z,66.27
2019-02-06T18:12:31.456Z,59.67
2019-02-06T18:15:21.310Z,57.73
2019-02-06T18:18:13.279Z,53.43
2019-02-06T18:20:57.453Z,58.97
2019-02-06T18:23:33.214Z,60.37
2019-02-06T18:26:16.232Z,63.87
2019-02-06T18:28:52.533Z,63.23
2019-02-06T18:31:34.747Z,55.63
2019-02-06T18:34:15.057Z,51.03
2019-02-06T18:36:44.733Z,47.70
2019-02-06T18:39:15.716Z,46.47
2019-02-06T18:41:45.465Z,49.17
2019-02-06T18:44:15.058Z,46.83
2019-02-06T18:46:45.713Z,44.40
2019-02-06T18:49:15.421Z,45.23
2019-02-06T18:51:45.563Z,43.00
2019-02-06T18:54:15.113Z,49.40
2019-02-06T18:56:45.297Z,49.70
2019-02-06T18:59:14.997Z,48.73
2019-02-06T19:01:44.597Z,57.50
2019-02-06T19:04:16.351Z,59.70
2019-02-06T19:06:46.004Z,73.10
2019-02-06T19:09:16.711Z,77.73
2019-02-06T19:11:46.195Z,80.80
2019-02-06T19:14:16.141Z,92.17
2019-02-06T19:16:45.741Z,81.00
2019-02-06T19:19:25.053Z,111.60
2019-02-06T19:21:48.208Z,119.97
2019-02-06T19:24:17.987Z,121.80
2019-02-06T19:26:47.461Z,139.47
2019-02-06T19:29:17.013Z,114.33
2019-02-06T19:31:47.010Z,112.33
2019-02-06T19:34:16.907Z,125.90
2019-02-06T19:36:46.896Z,120.23
2019-02-06T19:39:16.414Z,126.50
2019-02-06T19:41:45.940Z,117.77
2019-02-06T19:44:15.531Z,113.63
2019-02-06T19:46:45.577Z,113.53
2019-02-06T19:49:15.085Z,106.77
2019-02-06T19:51:44.627Z,108.53
2019-02-06T19:54:14.284Z,99.13
2019-02-06T19:56:43.849Z,96.77
2019-02-06T19:59:13.372Z,92.07
2019-02-06T20:01:43.094Z,92.27
2019-02-06T20:04:12.605Z,91.23
2019-02-06T20:06:42.182Z,89.50
2019-02-06T20:09:13.140Z,86.33
2019-02-06T20:11:42.938Z,78.27
2019-02-06T20:14:12.456Z,78.90
2019-02-06T20:16:41.998Z,77.67
2019-02-06T20:19:11.506Z,73.70
2019-02-06T20:21:41.538Z,73.67
2019-02-06T20:24:11.180Z,72.60
2019-02-06T20:26:40.710Z,68.67
2019-02-06T20:29:10.380Z,79.30
2019-02-06T20:31:40.099Z,70.83
2019-02-06T20:34:09.796Z,71.37
2019-02-06T20:36:39.288Z,86.53
2019-02-06T20:39:10.079Z,82.50
2019-02-06T20:41:39.570Z,76.50
2019-02-06T20:44:09.036Z,78.80
2019-02-06T20:46:38.639Z,81.33
2019-02-06T20:49:08.169Z,81.47
2019-02-06T20:51:37.855Z,78.10
2019-02-06T20:54:07.858Z,79.43
2019-02-06T20:56:37.722Z,81.47
2019-02-06T20:59:07.199Z,83.87
2019-02-06T21:01:37.690Z,81.50
2019-02-06T21:04:07.602Z,91.67
2019-02-06T21:06:37.659Z,94.87
2019-02-06T21:09:12.791Z,88.80
2019-02-06T21:11:42.773Z,79.07
2019-02-06T21:14:12.329Z,83.57
2019-02-06T21:16:41.837Z,90.10
2019-02-06T21:19:11.429Z,85.50
2019-02-06T21:21:40.975Z,86.97
2019-02-06T21:24:10.893Z,83.53
2019-02-06T21:26:40.451Z,78.60
2019-02-06T21:29:10.202Z,89.50
2019-02-06T21:31:39.774Z,82.37
2019-02-06T21:34:09.278Z,82.90
2019-02-06T21:36:38.881Z,87.43
2019-02-06T21:39:10.485Z,90.60
2019-02-06T21:41:40.220Z,96.70
2019-02-06T21:44:09.766Z,84.63
2019-02-06T21:46:39.300Z,84.90
2019-02-06T21:49:08.835Z,89.17
2019-02-06T21:51:38.370Z,87.73
2019-02-06T21:54:08.437Z,90.70
2019-02-06T21:56:38.028Z,89.60
2019-02-06T21:59:11.767Z,90.03
2019-02-06T22:01:41.675Z,89.07
2019-02-06T22:04:11.159Z,95.10
2019-02-06T22:06:42.369Z,92.40
2019-02-06T22:09:13.394Z,89.17
2019-02-06T22:11:42.956Z,89.50
2019-02-06T22:14:12.482Z,94.33
2019-02-06T22:16:42.133Z,85.43
2019-02-06T22:19:11.682Z,94.23
2019-02-06T22:21:41.496Z,89.93
2019-02-06T22:24:11.020Z,97.63
2019-02-06T22:26:40.709Z,97.20
2019-02-06T22:29:10.232Z,97.57
2019-02-06T22:31:39.855Z,102.53
2019-02-06T22:34:09.501Z,112.20
2019-02-06T22:36:39.066Z,100.33
2019-02-06T22:39:12.014Z,111.83
2019-02-06T22:41:41.521Z,110.57
2019-02-06T22:44:11.126Z,111.83
2019-02-06T22:46:40.670Z,122.50
2019-02-06T22:49:10.744Z,111.80
2019-02-06T22:51:40.239Z,104.37
2019-02-06T22:54:09.957Z,123.87
2019-02-06T22:56:41.237Z,119.07
2019-02-06T22:59:10.602Z,129.67
2019-02-06T23:01:47.926Z,122.23
2019-02-06T23:04:17.485Z,126.20
2019-02-06T23:06:47.035Z,131.80
2019-02-06T23:09:16.530Z,126.67
2019-02-06T23:11:46.239Z,120.93
2019-02-06T23:14:17.818Z,129.83
2019-02-06T23:16:47.034Z,131.77
2019-02-06T23:19:16.504Z,143.03
2019-02-06T23:21:46.206Z,132.00
2019-02-06T23:24:15.710Z,136.53
2019-02-06T23:26:45.209Z,127.93
2019-02-06T23:29:14.769Z,137.63
2019-02-06T23:31:44.285Z,119.07
2019-02-06T23:34:13.840Z,133.60
2019-02-06T23:36:43.433Z,134.13
2019-02-06T23:39:16.044Z,119.33
2019-02-06T23:41:45.727Z,125.80
2019-02-06T23:44:15.930Z,113.80
2019-02-06T23:46:45.392Z,128.17
2019-02-06T23:49:14.947Z,110.00
2019-02-06T23:51:44.738Z,121.40
2019-02-06T23:54:14.257Z,122.47
2019-02-06T23:56:43.929Z,114.20
2019-02-06T23:59:13.735Z,121.40
